Station info - map view · info · telemetry · weather · raw · status · beacons · messages · bulletins · browse · moving · my account
Callsign, ship name or locator: Clear       
It is possible to search using wildcards (*?) after a prefix. Example: OH*
APRS station DK3SML-9 - show graphs
Map loading...
Comment: DK3SML/M DOK P56 MIKE
Mic-E message: In service
Location: 49°12.45' N 9°30.78' E - locator JN49SE19NT - show map - static map
2.1 miles North bearing 10° from Pfedelbach, Regierungsbezirk Stuttgart, Baden-Württemberg, Germany [?]
3.9 miles Northeast bearing 60° from Bretzfeld, Regierungsbezirk Stuttgart, Baden-Württemberg, Germany
33.1 miles Northeast bearing 27° from Stuttgart, Regierungsbezirk Stuttgart, Baden-Württemberg, Germany
72.9 miles Southeast bearing 149° from Frankfurt am Main, Regierungsbezirk Darmstadt, Hesse, Germany
Last position: 2020-11-25 05:03:45 CST (5h58m ago)
2020-11-25 12:03:45 CET local time at Pfedelbach, Germany [?]
Altitude: 889 ft
Course: 40°
Speed: 3 MPH
Device: Kenwood: TM-D710 (rig)
Last path: DK3SML-9>T9QRT5 via WIDE1-1,WIDE2-1,qAS,DL6UO-10 (good)
Positions stored: 288863
Packet rate: 26 seconds between packets on average during 551 seconds.
This station is transmitting packets at a high rate, which can cause congestion in the APRS network.
Other SSIDs: DK3SML-7
Stations near current position of DK3SML-9 - show more
callsign distance last heard - CST      callsign distance last heard - CST
DL6UO-10446.2 yards 182°2020-11-25 10:00:00 DDK3SML-91.0 miles 68°2020-11-09 05:46:12
DL6UO-71.1 miles 257°2020-11-25 10:46:54 DL3SL-B2.8 miles 241°2020-11-25 10:55:32
DL3SL-E2.8 miles 241°2020-11-03 02:37:29 DL3SL-93.3 miles 247°2020-11-17 07:27:26
DL3SL-103.3 miles 247°2020-11-25 10:40:49 DDL3SL-103.3 miles 247°2020-11-17 07:33:45
DL3SL-83.3 miles 247°2020-11-17 02:47:33 DDL3SL-83.3 miles 247°2020-11-17 02:47:33
DLDL3SL-83.3 miles 247°2020-11-17 02:47:14 DDDL3SL-83.3 miles 247°2020-11-17 02:46:32
DDL3SL-93.3 miles 247°2020-11-17 07:27:08 DLDL3SL-93.3 miles 247°2020-11-17 07:27:21
DDDL3SL-93.3 miles 247°2020-11-17 07:26:19 DL3SL-63.3 miles 246°2020-11-25 10:59:14
R33102454.8 miles 17°2020-11-22 12:47:30 DH3SF-95.1 miles 22°2020-11-18 09:07:04
S04106636.9 miles 159°2020-11-07 06:55:03 S04106207.5 miles 105°2020-11-08 20:14:00
Stations which heard DK3SML-9 directly on radio –
callsign pkts first heard - CST last heard longest (tx => rx) longest at - CST
DB0RZ 2 2020-11-01 02:55:05 2020-11-01 07:43:11 JN57ML > JN48SD 84.3 miles 304° 2020-11-01 02:55:05
DB0MI 9 2020-11-02 00:54:39 2020-11-23 00:54:09 JN49RC > JN49PS 48.3 miles 350° 2020-11-15 06:27:01
DB0VOX 1 2020-11-01 11:18:53 2020-11-01 11:18:53 JN59DE > JN59MK 36.9 miles 62° 2020-11-01 11:18:53
OE2XHR-11 3 2020-11-01 07:05:18 2020-11-01 07:16:48 JN58MJ > JN67MK 115.4 miles 125° 2020-11-01 07:16:48
DB0KT 1 2020-11-07 09:58:15 2020-11-07 09:58:15 JN49PG > JO40PL 84.0 miles 0° 2020-11-07 09:58:15
DB0KUN 68 2020-11-01 11:43:48 2020-11-25 05:03:16 JN49PF > JN49TH 19.2 miles 77° 2020-11-21 05:52:22
DB0BL 15 2020-11-01 07:51:51 2020-11-01 11:11:11 JN59DC > JN58EV 16.8 miles 168° 2020-11-01 11:11:11
DL3SL-6 59 2020-11-01 11:57:49 2020-11-24 10:05:21 JN49PG > JN49RE 10.4 miles 126° 2020-11-15 08:52:10
DB0RO 47 2020-11-02 00:34:47 2020-11-24 05:46:15 JN49SF > JN49AF 68.6 miles 272° 2020-11-16 08:26:35
DB0TFM-1 55 2020-11-01 11:54:19 2020-11-24 10:16:28 JN49SF > JN48ES 61.7 miles 239° 2020-11-01 11:54:19
DB0WZ 4 2020-11-01 11:10:19 2020-11-09 00:45:57 JN59DC > JN49WS 50.0 miles 339° 2020-11-01 11:10:19
DB0BOS 1 2020-11-15 08:04:54 2020-11-15 08:04:54 JN49QC > JN49LR 49.4 miles 336° 2020-11-15 08:04:54
DC7WOL-10 1 2020-11-01 02:47:30 2020-11-01 02:47:30 JN57ML > JN58GB 46.3 miles 329° 2020-11-01 02:47:30
DB0TTM 2 2020-11-01 11:47:48 2020-11-23 08:31:12 JN49SF > JN49VJ 17.6 miles 43° 2020-11-23 08:31:12
DF6MD-10 13 2020-11-01 03:03:16 2020-11-01 04:25:37 JN57NM > JN57GW 39.5 miles 318° 2020-11-01 03:03:16
DG3IAP-10 117 2020-11-01 11:54:16 2020-11-24 10:16:22 JN49TF > JN48KV 40.0 miles 236° 2020-11-05 06:33:42
DB0HZG 3 2020-11-06 00:41:34 2020-11-15 07:54:39 JN49RF > JN48MP 45.2 miles 206° 2020-11-07 09:38:00
DB0SAA-10 48 2020-11-01 02:49:53 2020-11-23 08:30:55 JN57ML > JN58BT 100.5 miles 335° 2020-11-01 02:49:53
DB0PM 10 2020-11-01 06:00:25 2020-11-01 07:05:13 JN58PG > JN57WS 44.2 miles 144° 2020-11-01 07:05:13
DB0POB 1 2020-11-01 07:26:01 2020-11-01 07:26:01 JN58KK > JN58QP 27.2 miles 59° 2020-11-01 07:26:01
DL6SH-10 15 2020-11-01 11:28:28 2020-11-23 05:44:22 JN59CE > JN48SW 34.2 miles 239° 2020-11-01 11:28:28
DB0OAL 25 2020-11-01 02:47:32 2020-11-01 10:37:18 JN58GU > JN57JN 89.1 miles 172° 2020-11-01 10:37:18
DG4MLA-10 3 2020-11-01 06:55:55 2020-11-01 07:02:43 JN58QF > JN58TG 11.7 miles 83° 2020-11-01 07:02:43
DL1GER-10 7 2020-11-01 02:53:11 2020-11-01 07:29:15 JN57ML > JN58CM 82.3 miles 333° 2020-11-01 02:53:11
DL2MEL-10 6 2020-11-01 06:54:55 2020-11-01 07:06:14 JN58PG > JN58QE 7.7 miles 136° 2020-11-01 07:06:14
DB0DLG-10 12 2020-11-01 02:48:02 2020-11-01 07:44:59 JN57ML > JN58FM 76.7 miles 339° 2020-11-01 02:49:50
dl5mgz 5 2020-11-01 06:42:36 2020-11-01 06:59:43 JN58SE > JN58RD 5.6 miles 239° 2020-11-01 06:49:04
DB0SWR-10 3 2020-11-09 00:56:04 2020-11-23 00:53:45 JN49SF > JN49RQ 30.4 miles 355° 2020-11-16 02:49:44
dl1mj-10 3 2020-11-01 07:27:15 2020-11-01 07:43:46 JN58KL > JN58HP 16.0 miles 312° 2020-11-01 07:27:15
DB0FEU-1 36 2020-11-01 07:51:07 2020-11-01 11:35:16 JN58IS > JN59DD 29.8 miles 329° 2020-11-01 07:51:07
DB0MUC 13 2020-11-01 06:28:08 2020-11-01 07:00:43 JN58RA > JN58SD 11.9 miles 33° 2020-11-01 06:28:08
DB0ED 13 2020-11-01 02:50:17 2020-11-01 06:58:02 JN57ML > JN68AG 72.4 miles 39° 2020-11-01 02:50:17
DB1DT 11 2020-11-01 10:53:01 2020-11-01 11:46:16 JN58FX > JN49XC 21.6 miles 288° 2020-11-01 10:53:01
DB0WS 1 2020-11-15 07:52:51 2020-11-15 07:52:51 JN49SC > JN48RT 20.0 miles 191° 2020-11-15 07:52:51
DB0KG 11 2020-11-02 00:48:51 2020-11-23 02:55:09 JN49TF > JN49JC 37.2 miles 259° 2020-11-05 06:34:32
DB0SOB 14 2020-11-01 07:24:45 2020-11-01 10:37:11 JN58GU > JN58ON 34.9 miles 121° 2020-11-01 10:37:11
DC1SHM-10 40 2020-11-06 00:25:56 2020-11-21 05:56:26 JN49SD > JN49PD 10.0 miles 280° 2020-11-15 06:22:21
DB0FBH-10 1 2020-11-12 00:08:10 2020-11-12 00:08:10 JN49SF > JN39UO 85.6 miles 289° 2020-11-12 00:08:10
DB0HOB-10 2 2020-11-01 07:05:15 2020-11-01 07:09:43 JN58OH > JN67DR 63.0 miles 128° 2020-11-01 07:09:43
DB0FZ-1 1 2020-11-01 06:40:17 2020-11-01 06:40:17 JN58SD > JN57UV 18.8 miles 154° 2020-11-01 06:40:17
DD5JFK 4 2020-11-01 06:36:36 2020-11-01 06:41:58 JN58SC > JN58SC 1.6 miles 48° 2020-11-01 06:36:36
DB0SMU 1 2020-11-01 07:23:09 2020-11-01 07:23:09 JN58KJ > JN58JF 14.1 miles 198° 2020-11-01 07:23:09
DB0WTL-10 90 2020-11-01 12:00:50 2020-11-24 06:49:50 JN49PH > JN49QC 15.6 miles 155° 2020-11-21 07:41:21
DL6UO-10 644 2020-11-01 11:44:16 2020-11-25 05:03:45 JN49VE > JN49SE 14.2 miles 279° 2020-11-01 11:44:16
DB0TVM 25 2020-11-01 03:08:32 2020-11-01 07:07:44 JN57NN > JN58SE 46.7 miles 24° 2020-11-01 03:09:15
DB0ODE-10 458 2020-11-01 11:43:53 2020-11-25 05:03:49 JN49WE > JN49MH 35.7 miles 288° 2020-11-01 11:43:53
DB0SC-2 10 2020-11-01 11:21:11 2020-11-23 00:46:37 JN49QC > JN49VN 37.1 miles 27° 2020-11-15 08:03:42
DB0RDH 1 2020-11-01 04:07:41 2020-11-01 04:07:41 JN57MO > JN68KW 124.4 miles 41° 2020-11-01 04:07:41
DL3SL-10 621 2020-11-01 11:50:16 2020-11-25 05:03:29 JN49PH > JN49RE 11.1 miles 131° 2020-11-21 07:41:20
DB0AB 29 2020-11-01 07:33:57 2020-11-01 11:34:16 JN58KN > JN59HD 40.3 miles 345° 2020-11-01 07:33:57
DO3MMC-10 26 2020-11-06 00:23:28 2020-11-23 08:31:10 JN49SF > JN49NB 21.7 miles 241° 2020-11-23 08:31:10

Only position packets which were originated by the station are shown here. The range statistics show some extra long hops, because some digipeaters do not correctly add themselves to the digipeater path. Please check the raw packets.
About this site
This page shows real-time information collected from the Automatic Position Reporting System Internet network (APRS-IS). APRS is used by amateur (ham) radio operators to transmit real-time position information, weather data, telemetry and messages over the radio. A vehicle equipped with a GPS receiver, a VHF transmitter or HF transceiver and a small computer device called a tracker transmits it's location, speed and course in a small data packet, which is then received by a nearby iGate receiving site which forwards the packet on the Internet. Systems connected to the Internet can send information on the APRS-IS without a radio transmitter, or collect and display information transmitted anywhere in the world.
User guide · FAQ · Blog · Discussion group · Linking to aprs.fi · AIS sites · Service status · Database statistics · Advertising on aprs.fi · Technical details · API · Change log · Planned changes · Credits and thanks · Terms Of Service · iPhone/iPad APRS